Terminal Aerodrome Forecast
Issued by NWS Wilmington, NC

Home | Current Version | Previous Version | Text Only | Print | Product List | Glossary On
Versions: 1 2 3 4 5 6 7 8 9 10 11 12 13 14 15
000
FTUS42 KILM 310529
TAFLBT
TAF
KLBT 310529Z 3106/0106 VRB03KT P6SM VCSH SCT050 BKN100
     FM311200 36005KT P6SM SCT040 BKN250
     FM311800 33004KT P6SM BKN250 PROB30 3118/3121 4SM -TSRA
      BKN050CB
     FM312100 36005KT P6SM SCT250 PROB30 3121/3124 4SM -TSRA
      BKN050CB
     FM010000 16003KT P6SM BKN250
     FM010300 19003KT P6SM BKN250=

USA.gov is the U.S. government's official web portal to all federal, state and local government web resources and services.